Terminal Aerodrome Forecast
Issued by NWS

Home | Current Version | Previous Version | Text Only | Print | Product List | Glossary On
Versions: 1 2 3 4 5 6 7 8 9 10 11 12 13 14 15
221
FTUS46 KPDT 241136
TAFBDN
TAF
KBDN 241136Z 2412/2512 22007KT P6SM FEW050 SCT060
     FM242000 20006KT P6SM SCT050 BKN150
     FM250600 VRB04KT P6SM BKN200=

USA.gov is the U.S. government's official web portal to all federal, state and local government web resources and services.